PWSweather.com
Personal Weather Stations
Station Observations
KVAGLENALL
West Henrico, Glen Allen, VA 23060-6503

West HenricoGlen Allen, VA 23060-6503

Lat: 37.6554, Lon: -77.5693

Elevation: 273

Station Type: Davis Vantage Pro II

Latest ConditionsUpdated 11:00:36 AM EDT Monday, Oct 23, 2017
Currently Today's Max Today's Min Today's Average
Temperature 73.3°F22.9°C 73.3°F22.9°C 58.0°F14.4°C 60.9°F16.1°C
Dew Point 65.3°F18.5°C 65.4°F18.6°C 56.9°F13.8°C 58.9°F14.9°C
Winds 2.0 mph SSW3.2 kmh SSW 5.1 mph SE8.2 kmh SE - 1.0 mph 1.6 kmh
Wind Gusts 10.1 mph16.3 kmh 10.1 mph16.3 kmh - -
Humidity 76% 97% 76% 93%
Pressure 30.16 in1021.3 mb 30.30 in1026.1 mb 30.16 in1021.3 mb -
Hour Temp Dew Point Humidity Winds Wind Gusts Pressure Precip Precip Rate Daily Precip Total
11:00 AM 73.3°F22.9°C 65.3°F18.5°C 76% 2.0 mph SSW3.2 kmh SSW 10.1 mph16.3 kmh 30.16 in1021.3 mb 0.00 in0.0 mm 0.00 in0.0 mm 0.00 in0.0 mm
10:45 AM 72.3°F22.4°C 65.4°F18.6°C 79% 5.1 mph E8.2 kmh E 8.1 mph13.0 kmh 30.16 in1021.3 mb 0.00 in0.0 mm 0.00 in0.0 mm 0.00 in0.0 mm
10:30 AM 70.3°F21.3°C 64.5°F18.1°C 82% 4.1 mph SE6.6 kmh SE 5.1 mph8.2 kmh 30.17 in1021.7 mb 0.00 in0.0 mm 0.00 in0.0 mm 0.00 in0.0 mm
10:15 AM 68.2°F20.1°C 64.2°F17.9°C 87% 2.0 mph SE3.2 kmh SE 7.1 mph11.4 kmh 30.19 in1022.4 mb 0.00 in0.0 mm 0.00 in0.0 mm 0.00 in0.0 mm
10:00 AM 66.2°F19.0°C 63.2°F17.3°C 90% 5.1 mph SSE8.2 kmh SSE 7.1 mph11.4 kmh 30.19 in1022.4 mb 0.00 in0.0 mm 0.00 in0.0 mm 0.00 in0.0 mm
09:45 AM 63.5°F17.5°C 62.4°F16.9°C 96% 1.0 mph SSE1.6 kmh SSE 7.1 mph11.4 kmh 30.19 in1022.4 mb 0.00 in0.0 mm 0.00 in0.0 mm 0.00 in0.0 mm
09:30 AM 62.2°F16.8°C 61.1°F16.2°C 96% 0.1 mph ESE0.2 kmh ESE 2.1 mph3.4 kmh 30.19 in1022.4 mb 0.00 in0.0 mm 0.00 in0.0 mm 0.00 in0.0 mm
09:15 AM 61.7°F16.5°C 60.9°F16.1°C 97% 2.0 mph ESE3.2 kmh ESE 3.1 mph5.0 kmh 30.20 in1022.7 mb 0.00 in0.0 mm 0.00 in0.0 mm 0.00 in0.0 mm
09:00 AM 61.4°F16.3°C 60.6°F15.9°C 97% 1.0 mph SE1.6 kmh SE 2.1 mph3.4 kmh 30.21 in1023.0 mb 0.00 in0.0 mm 0.00 in0.0 mm 0.00 in0.0 mm
08:45 AM 60.0°F15.6°C 59.2°F15.1°C 97% 0.1 mph SSE0.2 kmh SSE 0.1 mph0.2 kmh 30.22 in1023.4 mb 0.00 in0.0 mm 0.00 in0.0 mm 0.00 in0.0 mm
08:30 AM 59.4°F15.2°C 58.6°F14.8°C 97% 0.1 mph SSE0.2 kmh SSE 0.1 mph0.2 kmh 30.22 in1023.4 mb 0.00 in0.0 mm 0.00 in0.0 mm 0.00 in0.0 mm
08:15 AM 58.8°F14.9°C 57.7°F14.3°C 96% 0.1 mph SSE0.2 kmh SSE 0.1 mph0.2 kmh 30.23 in1023.7 mb 0.00 in0.0 mm 0.00 in0.0 mm 0.00 in0.0 mm
08:00 AM 58.5°F14.7°C 57.4°F14.1°C 96% 1.0 mph SE1.6 kmh SE 1.1 mph1.8 kmh 30.22 in1023.4 mb 0.00 in0.0 mm 0.00 in0.0 mm 0.00 in0.0 mm
07:45 AM 58.3°F14.6°C 57.2°F14.0°C 96% 0.1 mph SE0.2 kmh SE 2.1 mph3.4 kmh 30.23 in1023.7 mb 0.00 in0.0 mm 0.00 in0.0 mm 0.00 in0.0 mm
07:30 AM 58.2°F14.6°C 57.1°F13.9°C 96% 0.1 mph SE0.2 kmh SE 1.1 mph1.8 kmh 30.22 in1023.4 mb 0.00 in0.0 mm 0.00 in0.0 mm 0.00 in0.0 mm
07:15 AM 58.2°F14.6°C 57.1°F13.9°C 96% 1.0 mph SE1.6 kmh SE 2.1 mph3.4 kmh 30.23 in1023.7 mb 0.00 in0.0 mm 0.00 in0.0 mm 0.00 in0.0 mm
07:00 AM 58.0°F14.4°C 56.9°F13.8°C 96% 2.0 mph SE3.2 kmh SE 2.1 mph3.4 kmh 30.23 in1023.7 mb 0.00 in0.0 mm 0.00 in0.0 mm 0.00 in0.0 mm
06:45 AM 58.0°F14.4°C 56.9°F13.8°C 96% 0.1 mph SE0.2 kmh SE 1.1 mph1.8 kmh 30.23 in1023.7 mb 0.00 in0.0 mm 0.00 in0.0 mm 0.00 in0.0 mm
06:30 AM 58.5°F14.7°C 57.1°F13.9°C 95% 0.1 mph SE0.2 kmh SE 0.1 mph0.2 kmh 30.23 in1023.7 mb 0.00 in0.0 mm 0.00 in0.0 mm 0.00 in0.0 mm
06:15 AM 58.8°F14.9°C 57.4°F14.1°C 95% 0.1 mph SE0.2 kmh SE 1.1 mph1.8 kmh 30.24 in1024.0 mb 0.00 in0.0 mm 0.00 in0.0 mm 0.00 in0.0 mm
06:00 AM 58.7°F14.8°C 57.3°F14.1°C 95% 1.0 mph SE1.6 kmh SE 1.1 mph1.8 kmh 30.24 in1024.0 mb 0.00 in0.0 mm 0.00 in0.0 mm 0.00 in0.0 mm
05:45 AM 58.5°F14.7°C 57.1°F13.9°C 95% 0.1 mph SE0.2 kmh SE 1.1 mph1.8 kmh 30.24 in1024.0 mb 0.00 in0.0 mm 0.00 in0.0 mm 0.00 in0.0 mm
05:30 AM 58.5°F14.7°C 57.1°F13.9°C 95% 0.1 mph SE0.2 kmh SE 0.1 mph0.2 kmh 30.24 in1024.0 mb 0.00 in0.0 mm 0.00 in0.0 mm 0.00 in0.0 mm
05:15 AM 58.9°F14.9°C 57.5°F14.2°C 95% 1.0 mph SE1.6 kmh SE 2.1 mph3.4 kmh 30.24 in1024.0 mb 0.00 in0.0 mm 0.00 in0.0 mm 0.00 in0.0 mm
05:00 AM 59.2°F15.1°C 57.8°F14.3°C 95% 0.1 mph SE0.2 kmh SE 1.1 mph1.8 kmh 30.25 in1024.4 mb 0.00 in0.0 mm 0.00 in0.0 mm 0.00 in0.0 mm
04:45 AM 59.6°F15.3°C 58.2°F14.6°C 95% 0.1 mph SE0.2 kmh SE 1.1 mph1.8 kmh 30.25 in1024.4 mb 0.00 in0.0 mm 0.00 in0.0 mm 0.00 in0.0 mm
04:30 AM 60.1°F15.6°C 58.7°F14.8°C 95% 0.1 mph SE0.2 kmh SE 1.1 mph1.8 kmh 30.25 in1024.4 mb 0.00 in0.0 mm 0.00 in0.0 mm 0.00 in0.0 mm
04:15 AM 60.1°F15.6°C 58.7°F14.8°C 95% 1.0 mph SE1.6 kmh SE 2.1 mph3.4 kmh 30.25 in1024.4 mb 0.00 in0.0 mm 0.00 in0.0 mm 0.00 in0.0 mm
04:00 AM 59.7°F15.4°C 58.3°F14.6°C 95% 1.0 mph SE1.6 kmh SE 1.1 mph1.8 kmh 30.26 in1024.7 mb 0.00 in0.0 mm 0.00 in0.0 mm 0.00 in0.0 mm
03:45 AM 59.8°F15.4°C 58.1°F14.5°C 94% 1.0 mph SE1.6 kmh SE 2.1 mph3.4 kmh 30.26 in1024.7 mb 0.00 in0.0 mm 0.00 in0.0 mm 0.00 in0.0 mm
03:30 AM 59.8°F15.4°C 58.1°F14.5°C 94% 1.0 mph SE1.6 kmh SE 2.1 mph3.4 kmh 30.26 in1024.7 mb 0.00 in0.0 mm 0.00 in0.0 mm 0.00 in0.0 mm
03:15 AM 59.4°F15.2°C 57.7°F14.3°C 94% 0.1 mph SE0.2 kmh SE 1.1 mph1.8 kmh 30.26 in1024.7 mb 0.00 in0.0 mm 0.00 in0.0 mm 0.00 in0.0 mm
03:00 AM 59.3°F15.2°C 57.6°F14.2°C 94% 0.1 mph SE0.2 kmh SE 0.1 mph0.2 kmh 30.27 in1025.1 mb 0.00 in0.0 mm 0.00 in0.0 mm 0.00 in0.0 mm
02:45 AM 59.3°F15.2°C 57.6°F14.2°C 94% 0.1 mph SE0.2 kmh SE 0.1 mph0.2 kmh 30.27 in1025.1 mb 0.00 in0.0 mm 0.00 in0.0 mm 0.00 in0.0 mm
02:30 AM 59.4°F15.2°C 57.4°F14.1°C 93% 0.1 mph SE0.2 kmh SE 0.1 mph0.2 kmh 30.27 in1025.1 mb 0.00 in0.0 mm 0.00 in0.0 mm 0.00 in0.0 mm
02:15 AM 59.6°F15.3°C 57.6°F14.2°C 93% 0.1 mph SE0.2 kmh SE 0.1 mph0.2 kmh 30.27 in1025.1 mb 0.00 in0.0 mm 0.00 in0.0 mm 0.00 in0.0 mm
02:00 AM 60.0°F15.6°C 57.7°F14.3°C 92% 0.1 mph ESE0.2 kmh ESE 1.1 mph1.8 kmh 30.26 in1024.7 mb 0.00 in0.0 mm 0.00 in0.0 mm 0.00 in0.0 mm
01:45 AM 60.6°F15.9°C 58.3°F14.6°C 92% 0.1 mph E0.2 kmh E 0.1 mph0.2 kmh 30.27 in1025.1 mb 0.00 in0.0 mm 0.00 in0.0 mm 0.00 in0.0 mm
01:30 AM 61.0°F16.1°C 58.4°F14.7°C 91% 1.0 mph SE1.6 kmh SE 2.1 mph3.4 kmh 30.27 in1025.1 mb 0.00 in0.0 mm 0.00 in0.0 mm 0.00 in0.0 mm
01:15 AM 61.6°F16.4°C 59.0°F15.0°C 91% 5.1 mph SE8.2 kmh SE 5.1 mph8.2 kmh 30.28 in1025.4 mb 0.00 in0.0 mm 0.00 in0.0 mm 0.00 in0.0 mm
01:00 AM 61.7°F16.5°C 59.1°F15.1°C 91% 0.1 mph SSE0.2 kmh SSE 3.1 mph5.0 kmh 30.28 in1025.4 mb 0.00 in0.0 mm 0.00 in0.0 mm 0.00 in0.0 mm
12:45 AM 61.6°F16.4°C 59.0°F15.0°C 91% 1.0 mph S1.6 kmh S 2.1 mph3.4 kmh 30.29 in1025.7 mb 0.00 in0.0 mm 0.00 in0.0 mm 0.00 in0.0 mm
12:30 AM 61.0°F16.1°C 58.7°F14.8°C 92% 0.1 mph S0.2 kmh S 3.1 mph5.0 kmh 30.29 in1025.7 mb 0.00 in0.0 mm 0.00 in0.0 mm 0.00 in0.0 mm
12:15 AM 60.4°F15.8°C 57.8°F14.3°C 91% 2.0 mph SSE3.2 kmh SSE 2.1 mph3.4 kmh 30.30 in1026.1 mb 0.00 in0.0 mm 0.00 in0.0 mm 0.00 in0.0 mm
12:00 AM 60.6°F15.9°C 57.7°F14.3°C 90% 0.1 mph SE0.2 kmh SE 1.1 mph1.8 kmh 30.30 in1026.1 mb 0.00 in0.0 mm 0.00 in0.0 mm 0.00 in0.0 mm